Clarkdale, Arizona
Current Conditions -  °F | °C
As of 3:35 PM on Monday 24 Nov 2014 (Local Time) from KSEZ Reporting Station
Clear Clear  
Wind Chill: 55°   Ceiling: Unl
Heat Index: 55°   Visibility: 10mi
Dew Point:   Wind: 20mph
Humidity: 13%   Direction: 350°N
Pressure: 30.21"   Gusts: 32mph
Location:  34.77°N, 112.06°W
Report Text: KSEZ 242235Z AUTO 35017G28KT 10SM CLR 13/M15 A3021 RMK AO2
Loading
Personal Weather Stations






























Interactive Weather Map New forecast layout! Learn more

10-Day Weather Forecast

Advertisements
Track Severe Weather on mobile